Time;durP1;ratioP1;P1;durP2;ratioP2;P2;SDS_P1;SDS_P2;PMS_P1;PMS_P2;Temp;Humidity;BMP_temperature;BMP_pressure;BME280_temperature;BME280_humidity;BME280_pressure;Samples;Min_cycle;Max_cycle;Signal;HPM_P1;HPM_P2
2022/01/04 00:01:42;;;;;;;1.23;1.13;;;7.60;99.90;;;;;;5047861;28;20505;-82
2022/01/04 00:04:07;;;;;;;7.32;1.70;;;7.50;99.90;;;;;;5032102;28;20388;-79
2022/01/04 00:06:33;;;;;;;5.53;2.08;;;7.50;99.90;;;;;;5023957;28;20045;-80
2022/01/04 00:09:01;;;;;;;4.32;2.58;;;7.50;99.90;;;;;;5044766;28;20437;-80
2022/01/04 00:14:09;;;;;;;1.67;1.55;;;7.50;99.90;;;;;;5042718;28;20051;-82
2022/01/04 00:16:34;;;;;;;8.65;2.05;;;7.50;99.90;;;;;;5053097;28;20486;-81
2022/01/04 00:19:00;;;;;;;8.18;2.20;;;7.40;99.90;;;;;;5033492;28;20048;-78
2022/01/04 00:21:26;;;;;;;5.18;2.00;;;7.40;99.90;;;;;;5056972;28;20049;-81
2022/01/04 00:23:51;;;;;;;9.80;2.67;;;7.30;99.90;;;;;;5048805;28;20368;-81
2022/01/04 00:26:17;;;;;;;5.78;2.60;;;7.30;99.90;;;;;;5056273;28;20065;-80
2022/01/04 00:28:43;;;;;;;2.60;2.35;;;7.20;99.90;;;;;;5045360;28;20037;-81
2022/01/04 00:31:08;;;;;;;10.23;2.17;;;7.20;99.90;;;;;;5050710;28;20041;-83
2022/01/04 00:33:34;;;;;;;4.75;2.42;;;7.20;99.90;;;;;;5034124;28;20086;-78
2022/01/04 00:36:00;;;;;;;7.50;2.75;;;7.30;99.90;;;;;;5048597;28;20048;-81
2022/01/04 00:38:25;;;;;;;9.57;2.22;;;7.20;99.90;;;;;;5043851;28;20049;-82
2022/01/04 00:40:51;;;;;;;2.65;1.95;;;7.30;99.90;;;;;;5049097;28;20045;-80
2022/01/04 00:43:17;;;;;;;3.47;1.63;;;7.30;99.90;;;;;;5033819;28;20125;-78
2022/01/04 00:45:45;;;;;;;3.88;1.38;;;7.30;99.90;;;;;;5050492;28;20041;-80
2022/01/04 00:50:55;;;;;;;2.95;1.90;;;7.40;99.90;;;;;;5050349;28;20148;-79
2022/01/04 00:53:22;;;;;;;8.50;2.33;;;7.40;99.90;;;;;;5050495;28;20135;-82
2022/01/04 00:55:48;;;;;;;7.50;2.67;;;7.40;99.90;;;;;;5050485;28;20381;-81
2022/01/04 00:58:13;;;;;;;8.55;2.38;;;7.30;99.90;;;;;;5050981;28;20060;-81
2022/01/04 01:00:40;;;;;;;8.60;2.75;;;7.30;99.90;;;;;;5053282;28;20053;-80
2022/01/04 01:03:06;;;;;;;;;;;7.30;99.90;;;;;;5044291;28;20438;-79
2022/01/04 01:05:33;;;;;;;8.93;1.80;;;7.30;99.90;;;;;;5050625;28;19963;-81
2022/01/04 01:07:59;;;;;;;5.47;2.05;;;7.20;99.90;;;;;;5046150;28;20052;-80
2022/01/04 01:12:52;;;;;;;3.17;2.05;;;7.20;99.90;;;;;;5049044;28;19917;-81
2022/01/04 01:15:18;;;;;;;5.20;2.88;;;7.20;99.90;;;;;;5046882;28;20047;-79
2022/01/04 01:17:43;;;;;;;4.15;2.08;;;7.20;99.90;;;;;;5048482;28;20048;-81
2022/01/04 01:20:10;;;;;;;5.75;2.90;;;7.20;99.90;;;;;;5041309;28;20034;-82
2022/01/04 01:22:37;;;;;;;4.43;2.65;;;7.20;99.90;;;;;;5048579;28;20044;-82
2022/01/04 01:25:04;;;;;;;3.25;2.30;;;7.20;99.90;;;;;;5046148;28;20037;-80
2022/01/04 01:27:30;;;;;;;4.47;2.58;;;7.30;99.90;;;;;;5050825;28;20064;-82
2022/01/04 01:29:56;;;;;;;8.38;3.20;;;7.30;99.90;;;;;;5045412;28;20040;-80
2022/01/04 01:32:22;;;;;;;3.35;2.53;;;7.30;99.90;;;;;;5064683;28;20132;-82
2022/01/04 01:34:48;;;;;;;3.67;2.15;;;7.40;99.90;;;;;;5027632;28;20041;-82
2022/01/04 01:37:13;;;;;;;7.75;2.58;;;7.40;99.90;;;;;;5049716;28;20120;-81
2022/01/04 01:39:40;;;;;;;6.20;2.25;;;7.40;99.90;;;;;;5049364;28;20044;-82
2022/01/04 01:42:06;;;;;;;2.58;2.22;;;7.40;99.90;;;;;;5023815;28;20051;-79
2022/01/04 01:44:32;;;;;;;;;;;7.50;99.90;;;;;;5027821;28;20033;-81
2022/01/04 01:46:58;;;;;;;10.05;2.83;;;7.50;99.90;;;;;;5047584;28;19916;-81
2022/01/04 01:49:25;;;;;;;2.97;2.05;;;7.50;99.90;;;;;;5050155;28;20533;-82
2022/01/04 01:51:51;;;;;;;;;;;7.50;99.90;;;;;;5050264;28;20478;-80
2022/01/04 01:54:16;;;;;;;4.68;2.50;;;7.50;99.90;;;;;;5073406;28;19921;-82
2022/01/04 01:56:42;;;;;;;6.43;2.38;;;7.50;99.90;;;;;;5048789;28;20047;-79
2022/01/04 01:59:09;;;;;;;3.05;2.15;;;7.50;99.90;;;;;;5028863;28;20044;-79
2022/01/04 02:01:35;;;;;;;11.40;3.40;;;7.50;99.90;;;;;;5047424;28;20041;-79
2022/01/04 02:04:00;;;;;;;14.75;3.08;;;7.60;99.90;;;;;;5049075;28;20041;-82
2022/01/04 02:06:29;;;;;;;9.13;2.85;;;7.60;99.90;;;;;;5045017;28;20112;-79
2022/01/04 02:09:00;;;;;;;4.00;2.65;;;7.60;99.90;;;;;;5048511;28;20426;-82
2022/01/04 02:11:30;;;;;;;5.03;2.50;;;7.60;99.90;;;;;;5048404;28;20049;-79
2022/01/04 02:14:00;;;;;;;2.88;2.60;;;7.60;99.90;;;;;;5046558;28;20367;-82
2022/01/04 02:16:29;;;;;;;7.97;2.40;;;7.60;99.90;;;;;;5048373;28;20103;-82
2022/01/04 02:19:07;;;;;;;4.65;3.08;;;7.60;99.90;;;;;;5045489;28;20052;-79
2022/01/04 02:21:35;;;;;;;3.45;2.10;;;7.50;99.90;;;;;;5044037;28;20106;-82
2022/01/04 02:24:01;;;;;;;7.93;2.53;;;7.50;99.90;;;;;;5031110;28;20041;-81
2022/01/04 02:26:30;;;;;;;3.85;2.08;;;7.50;99.90;;;;;;5046107;28;20136;-80
2022/01/04 02:28:56;;;;;;;6.10;1.85;;;7.50;99.90;;;;;;5076672;28;20092;-80
2022/01/04 02:31:22;;;;;;;9.38;2.83;;;7.60;99.90;;;;;;5025878;28;20451;-82
2022/01/04 02:33:51;;;;;;;12.13;1.83;;;7.50;99.90;;;;;;5047184;28;20548;-81
2022/01/04 02:36:17;;;;;;;6.88;2.72;;;7.50;99.90;;;;;;5066939;28;20126;-76
2022/01/04 02:38:42;;;;;;;6.07;3.08;;;7.50;99.90;;;;;;5048826;28;20037;-79
2022/01/04 02:41:08;;;;;;;8.63;2.38;;;7.50;99.90;;;;;;5050139;28;20068;-80
2022/01/04 02:43:34;;;;;;;3.08;1.92;;;7.50;99.90;;;;;;5033056;28;20041;-81
2022/01/04 02:45:59;;;;;;;5.22;2.42;;;7.40;99.90;;;;;;5051530;28;20041;-79
2022/01/04 02:48:25;;;;;;;3.20;2.03;;;7.50;99.90;;;;;;5051880;28;20048;-79
2022/01/04 02:50:51;;;;;;;11.50;2.45;;;7.50;99.90;;;;;;5035133;28;20048;-79
2022/01/04 02:53:18;;;;;;;3.75;2.10;;;7.50;99.90;;;;;;5053489;28;20046;-80
2022/01/04 02:55:45;;;;;;;3.85;1.85;;;7.50;99.90;;;;;;5053862;28;20041;-78
2022/01/04 02:58:11;;;;;;;14.68;3.00;;;7.50;99.90;;;;;;5051778;28;20120;-79
2022/01/04 03:00:39;;;;;;;7.53;2.88;;;7.50;99.90;;;;;;5051618;28;20037;-78
2022/01/04 03:03:05;;;;;;;2.10;1.77;;;7.50;99.90;;;;;;5048771;28;20445;-78
2022/01/04 03:05:31;;;;;;;3.75;3.10;;;7.50;99.90;;;;;;5036008;28;20059;-78
2022/01/04 03:07:57;;;;;;;3.72;2.45;;;7.50;99.90;;;;;;5051568;28;20493;-81
2022/01/04 03:10:22;;;;;;;8.45;2.47;;;7.60;99.90;;;;;;5054549;28;20041;-79
2022/01/04 03:12:48;;;;;;;2.85;2.50;;;7.60;99.90;;;;;;5032064;28;20040;-80
2022/01/04 03:15:14;;;;;;;12.57;2.58;;;7.70;99.90;;;;;;5049582;28;20045;-81
2022/01/04 03:17:41;;;;;;;5.18;2.45;;;7.70;99.90;;;;;;5046810;28;20045;-81
2022/01/04 03:20:07;;;;;;;13.30;2.50;;;7.70;99.90;;;;;;5050681;28;20041;-81
2022/01/04 03:22:33;;;;;;;15.52;2.75;;;7.70;99.90;;;;;;5030117;28;20036;-77
2022/01/04 03:24:59;;;;;;;8.30;2.90;;;7.80;99.90;;;;;;5017970;28;20049;-79
2022/01/04 03:27:25;;;;;;;2.45;2.05;;;7.70;99.90;;;;;;5048990;28;20371;-78
2022/01/04 03:29:51;;;;;;;12.82;2.53;;;7.80;99.90;;;;;;5049093;28;20076;-79
2022/01/04 03:32:17;;;;;;;1.95;1.40;;;7.70;99.90;;;;;;5042503;28;20139;-79
2022/01/04 03:34:43;;;;;;;11.10;3.63;;;7.80;99.90;;;;;;5046660;28;20048;-79
2022/01/04 03:37:08;;;;;;;9.05;2.63;;;7.80;99.90;;;;;;5029032;28;20446;-79
2022/01/04 03:39:34;;;;;;;9.15;2.67;;;7.70;99.90;;;;;;5035023;28;20037;-79
2022/01/04 03:42:00;;;;;;;3.08;2.25;;;7.70;99.90;;;;;;5029991;28;20099;-81
2022/01/04 03:44:26;;;;;;;7.15;3.00;;;7.70;99.90;;;;;;5048617;28;20045;-78
2022/01/04 03:46:54;;;;;;;11.25;2.50;;;7.80;99.90;;;;;;5017294;28;20150;-77
2022/01/04 03:49:20;;;;;;;10.23;2.22;;;7.80;99.90;;;;;;5078024;28;20040;-79
2022/01/04 03:51:45;;;;;;;9.93;3.72;;;7.80;99.90;;;;;;5049700;28;20049;-78
2022/01/04 03:54:11;;;;;;;5.75;2.75;;;7.80;99.90;;;;;;5046317;28;20047;-82
2022/01/04 03:56:37;;;;;;;8.50;1.90;;;7.80;99.90;;;;;;5047092;28;20371;-79
2022/01/04 03:59:04;;;;;;;6.03;3.30;;;7.80;99.90;;;;;;5048213;28;20339;-78
2022/01/04 04:01:30;;;;;;;3.53;2.17;;;7.80;99.90;;;;;;5049811;28;20401;-78
2022/01/04 04:03:56;;;;;;;7.97;1.95;;;7.80;99.90;;;;;;5047209;28;20037;-81
2022/01/04 04:06:22;;;;;;;6.00;2.53;;;7.80;99.90;;;;;;5047117;28;20049;-79
2022/01/04 04:08:48;;;;;;;5.70;2.75;;;7.80;99.90;;;;;;5049903;28;20138;-79
2022/01/04 04:11:14;;;;;;;12.68;2.47;;;7.80;99.90;;;;;;5047962;28;20084;-78
2022/01/04 04:13:40;;;;;;;4.10;2.33;;;7.90;99.90;;;;;;5048952;28;20045;-78
2022/01/04 04:16:06;;;;;;;9.82;2.78;;;7.70;99.90;;;;;;5045876;28;20113;-79
2022/01/04 04:18:32;;;;;;;2.22;1.33;;;7.70;99.90;;;;;;5032828;28;20056;-78
2022/01/04 04:20:57;;;;;;;9.43;2.80;;;7.70;99.90;;;;;;5047921;28;20044;-80
2022/01/04 04:23:23;;;;;;;3.90;2.40;;;7.70;99.90;;;;;;5030294;28;20047;-79
2022/01/04 04:25:49;;;;;;;9.13;1.95;;;7.70;99.90;;;;;;5046398;28;20504;-77
2022/01/04 04:28:14;;;;;;;7.35;3.13;;;7.70;99.90;;;;;;5019123;28;20045;-81
2022/01/04 04:30:40;;;;;;;4.18;2.40;;;7.70;99.90;;;;;;5030414;28;20481;-79
2022/01/04 04:33:06;;;;;;;3.70;2.15;;;7.80;99.90;;;;;;5028544;28;20045;-79
2022/01/04 04:35:32;;;;;;;12.50;3.00;;;7.70;99.90;;;;;;5032085;28;20043;-77
2022/01/04 04:38:00;;;;;;;8.43;2.70;;;7.80;99.90;;;;;;5046363;28;20045;-79
2022/01/04 04:40:26;;;;;;;13.63;3.70;;;7.80;99.90;;;;;;5048644;28;20040;-78
2022/01/04 04:42:51;;;;;;;5.32;3.42;;;7.70;99.90;;;;;;5015974;28;20652;-77
2022/01/04 04:45:17;;;;;;;8.77;3.00;;;7.80;99.90;;;;;;5063799;28;20045;-80
2022/01/04 04:47:43;;;;;;;7.38;2.38;;;7.70;99.90;;;;;;5037944;28;20099;-80
2022/01/04 04:50:09;;;;;;;4.45;2.72;;;7.70;99.90;;;;;;5025217;28;20080;-80
2022/01/04 04:52:35;;;;;;;9.00;2.53;;;7.70;99.90;;;;;;5043256;28;20115;-79
2022/01/04 04:55:02;;;;;;;5.93;2.50;;;7.70;99.90;;;;;;5027213;28;20429;-81
2022/01/04 04:57:28;;;;;;;6.82;3.75;;;7.70;99.90;;;;;;5022213;28;20038;-81
2022/01/04 04:59:54;;;;;;;3.65;2.47;;;7.70;99.90;;;;;;5022293;28;20111;-80
2022/01/04 05:02:19;;;;;;;4.53;2.92;;;7.80;99.90;;;;;;5040040;28;20533;-80
2022/01/04 05:04:45;;;;;;;11.20;2.83;;;7.80;99.90;;;;;;5022165;28;20033;-78
2022/01/04 05:07:11;;;;;;;4.45;2.53;;;7.80;99.90;;;;;;5044098;28;20541;-77
2022/01/04 05:09:36;;;;;;;5.72;2.85;;;7.70;99.90;;;;;;5042326;28;20045;-79
2022/01/04 05:12:04;;;;;;;10.65;2.63;;;7.70;99.90;;;;;;5046263;28;20049;-77
2022/01/04 05:14:30;;;;;;;4.45;2.63;;;7.70;99.90;;;;;;5030934;28;20876;-77
2022/01/04 05:16:55;;;;;;;4.75;3.42;;;7.80;99.90;;;;;;5049381;28;20044;-77
2022/01/04 05:19:21;;;;;;;4.53;2.30;;;7.80;99.90;;;;;;5045507;28;20036;-79
2022/01/04 05:21:47;;;;;;;9.88;3.00;;;7.80;99.90;;;;;;5028447;28;20039;-80
2022/01/04 05:24:12;;;;;;;7.00;2.03;;;7.80;99.90;;;;;;5044722;28;20064;-79
2022/01/04 05:26:38;;;;;;;4.75;2.67;;;7.90;99.90;;;;;;5043949;28;20643;-81
2022/01/04 05:29:04;;;;;;;5.60;3.00;;;7.80;99.90;;;;;;5030769;28;20040;-79
2022/01/04 05:31:30;;;;;;;7.75;3.78;;;7.80;99.90;;;;;;5051020;28;20052;-78
2022/01/04 05:33:55;;;;;;;9.88;3.97;;;7.80;99.90;;;;;;5043913;28;20132;-80
2022/01/04 05:36:21;;;;;;;13.88;3.88;;;7.80;99.90;;;;;;5028939;28;20547;-78
2022/01/04 05:38:47;;;;;;;4.68;3.30;;;7.80;99.90;;;;;;5028060;28;20502;-82
2022/01/04 05:41:14;;;;;;;3.80;2.38;;;7.70;99.90;;;;;;5032994;28;20052;-79
2022/01/04 05:43:40;;;;;;;10.13;4.00;;;7.70;99.90;;;;;;5075274;28;20120;-82
2022/01/04 05:46:05;;;;;;;5.80;3.17;;;7.60;99.90;;;;;;5046572;28;20565;-78
2022/01/04 05:48:31;;;;;;;10.82;3.40;;;7.60;99.90;;;;;;5046223;28;20432;-79
2022/01/04 05:50:57;;;;;;;6.07;3.30;;;7.50;99.90;;;;;;5045818;28;20063;-79
2022/01/04 05:53:23;;;;;;;3.70;2.88;;;7.50;99.90;;;;;;5030476;28;20045;-79
2022/01/04 05:55:49;;;;;;;;;;;7.50;99.90;;;;;;5052524;28;20048;-82
2022/01/04 05:58:15;;;;;;;10.52;3.35;;;7.40;99.90;;;;;;5030876;28;19921;-81
2022/01/04 06:00:40;;;;;;;9.93;3.80;;;7.40;99.90;;;;;;5047052;28;20099;-79
2022/01/04 06:03:06;;;;;;;9.52;3.92;;;7.40;99.90;;;;;;5029522;28;20084;-78
2022/01/04 06:05:32;;;;;;;11.32;4.05;;;7.40;99.90;;;;;;5026808;28;20496;-79
2022/01/04 06:07:58;;;;;;;7.30;3.45;;;7.40;99.90;;;;;;5023912;28;20481;-79
2022/01/04 06:10:24;;;;;;;6.65;2.60;;;7.50;99.90;;;;;;5030964;28;20055;-79
2022/01/04 06:15:16;;;;;;;8.48;2.35;;;7.50;99.90;;;;;;5048966;28;20048;-80
2022/01/04 06:17:50;;;;;;;7.20;3.28;;;7.50;99.90;;;;;;5039352;28;20033;-79
2022/01/04 06:20:22;;;;;;;5.38;3.20;;;7.50;99.90;;;;;;5044835;28;20037;-78
2022/01/04 06:22:49;;;;;;;8.90;3.03;;;7.50;99.90;;;;;;5041879;28;20057;-81
2022/01/04 06:25:18;;;;;;;9.93;3.88;;;7.50;99.90;;;;;;5026927;28;20037;-78
2022/01/04 06:27:45;;;;;;;6.45;4.60;;;7.60;99.90;;;;;;5061405;28;20131;-81
2022/01/04 06:30:15;;;;;;;13.35;3.20;;;7.50;99.90;;;;;;5043591;28;20060;-78
2022/01/04 06:32:45;;;;;;;17.95;3.22;;;7.50;99.90;;;;;;5048686;28;20061;-81
2022/01/04 06:35:13;;;;;;;6.68;3.53;;;7.60;99.90;;;;;;5046182;28;20121;-80
2022/01/04 06:37:41;;;;;;;4.70;2.55;;;7.60;99.90;;;;;;5035069;28;20053;-81
2022/01/04 06:40:08;;;;;;;12.82;3.45;;;7.60;99.90;;;;;;5044488;28;20045;-81
2022/01/04 06:42:34;;;;;;;28.15;3.58;;;7.70;99.90;;;;;;5044032;28;20041;-79
2022/01/04 06:45:00;;;;;;;4.63;3.03;;;7.70;99.90;;;;;;5064052;28;20052;-82
2022/01/04 06:47:25;;;;;;;13.02;4.45;;;7.70;99.90;;;;;;5049247;28;20157;-78
2022/01/04 06:49:51;;;;;;;8.32;3.80;;;7.70;99.90;;;;;;5064952;28;20041;-77
2022/01/04 06:52:17;;;;;;;4.70;2.67;;;7.80;99.90;;;;;;5047166;28;20053;-82
2022/01/04 06:54:42;;;;;;;4.68;2.60;;;7.80;99.90;;;;;;5057865;28;20490;-79
2022/01/04 06:57:08;;;;;;;10.63;3.53;;;7.70;99.90;;;;;;5039769;28;20044;-79
2022/01/04 06:59:34;;;;;;;21.38;3.38;;;7.70;99.90;;;;;;5070906;28;20376;-79
2022/01/04 07:02:02;;;;;;;6.97;2.17;;;7.70;99.90;;;;;;5026920;28;20053;-77
2022/01/04 07:04:28;;;;;;;5.82;2.10;;;7.70;99.90;;;;;;5043203;28;20163;-78
2022/01/04 07:06:54;;;;;;;2.55;2.03;;;7.60;99.90;;;;;;5031232;28;20208;-77
2022/01/04 07:09:20;;;;;;;6.28;2.33;;;7.60;99.90;;;;;;5027079;28;20116;-77
2022/01/04 07:11:46;;;;;;;6.15;2.28;;;7.60;99.90;;;;;;5028772;28;20036;-77
2022/01/04 07:14:12;;;;;;;4.07;2.63;;;7.60;99.90;;;;;;5022657;28;20102;-80
2022/01/04 07:16:37;;;;;;;7.72;2.22;;;7.60;99.90;;;;;;5047925;28;20037;-80
2022/01/04 07:19:03;;;;;;;10.05;2.92;;;7.60;99.90;;;;;;5028880;28;20088;-78
2022/01/04 07:21:29;;;;;;;3.40;2.05;;;7.70;99.90;;;;;;5013373;28;20116;-80
2022/01/04 07:23:55;;;;;;;2.42;1.83;;;7.60;99.90;;;;;;5041462;28;20367;-78
2022/01/04 07:26:22;;;;;;;2.72;1.98;;;7.60;99.90;;;;;;5027616;28;20136;-76
2022/01/04 07:28:48;;;;;;;3.13;2.00;;;7.60;99.90;;;;;;5027906;28;20446;-80
2022/01/04 07:31:15;;;;;;;4.05;2.42;;;7.60;99.90;;;;;;5046581;28;20058;-79
2022/01/04 07:33:41;;;;;;;8.30;2.90;;;7.60;99.90;;;;;;5026251;28;20038;-78
2022/01/04 07:36:07;;;;;;;5.60;2.15;;;7.60;99.90;;;;;;5010531;28;20041;-78
2022/01/04 07:38:34;;;;;;;;;;;7.60;99.90;;;;;;5012094;28;20041;-77
2022/01/04 07:41:00;;;;;;;2.85;1.92;;;7.60;99.90;;;;;;5055564;28;19931;-79
2022/01/04 07:43:25;;;;;;;2.45;1.85;;;7.50;99.90;;;;;;5027532;28;20072;-78
2022/01/04 07:45:54;;;;;;;7.50;3.15;;;7.50;99.90;;;;;;5049948;28;20473;-81
2022/01/04 07:48:22;;;;;;;3.38;2.80;;;7.50;99.90;;;;;;5047878;28;20110;-82
2022/01/04 07:50:47;;;;;;;4.47;2.17;;;7.50;99.90;;;;;;5074910;28;20737;-79
2022/01/04 07:53:13;;;;;;;7.22;2.70;;;7.40;99.90;;;;;;5044763;28;20049;-79
2022/01/04 07:55:39;;;;;;;5.05;2.35;;;7.70;99.90;;;;;;5047353;28;20044;-78
2022/01/04 07:58:05;;;;;;;4.78;2.78;;;7.50;99.90;;;;;;5044192;28;20045;-78
2022/01/04 08:00:31;;;;;;;7.47;1.90;;;7.40;99.90;;;;;;5012663;28;20486;-79
2022/01/04 08:02:56;;;;;;;11.57;1.77;;;7.50;99.90;;;;;;5003779;28;20079;-78
2022/01/04 08:05:23;;;;;;;1.88;1.67;;;7.40;99.90;;;;;;5041008;28;20084;-76
2022/01/04 08:07:50;;;;;;;7.07;2.72;;;7.40;99.90;;;;;;5026054;28;20186;-78
2022/01/04 08:10:17;;;;;;;7.00;2.60;;;7.40;99.90;;;;;;5024574;28;20501;-82
2022/01/04 08:12:54;;;;;;;12.60;2.10;;;7.30;99.90;;;;;;5033054;28;20094;-83
2022/01/04 08:15:19;;;;;;;11.38;2.55;;;7.30;99.90;;;;;;5042361;28;20291;-77
2022/01/04 08:17:45;;;;;;;5.63;2.20;;;7.30;99.90;;;;;;5043978;28;20049;-77
2022/01/04 08:20:11;;;;;;;4.55;2.03;;;7.40;99.90;;;;;;5011800;28;20037;-79
2022/01/04 08:22:37;;;;;;;3.30;1.92;;;7.40;99.90;;;;;;5029402;28;20076;-78
2022/01/04 08:25:07;;;;;;;;;;;7.40;99.90;;;;;;5041567;28;20120;-81
2022/01/04 08:27:33;;;;;;;3.50;1.92;;;7.40;99.90;;;;;;5031877;28;19920;-81
2022/01/04 08:29:59;;;;;;;;;;;7.40;99.90;;;;;;5024490;28;20441;-77
2022/01/04 08:32:25;;;;;;;5.68;2.25;;;7.40;99.90;;;;;;5045323;28;20015;-77
2022/01/04 08:34:51;;;;;;;2.65;1.35;;;7.30;99.90;;;;;;5045413;28;20045;-76
2022/01/04 08:37:17;;;;;;;4.60;1.88;;;7.30;99.90;;;;;;5027640;28;20662;-78
2022/01/04 08:39:44;;;;;;;;;;;7.30;99.90;;;;;;5025114;28;20037;-81
2022/01/04 08:42:10;;;;;;;1.85;1.35;;;7.30;99.90;;;;;;5057703;28;19924;-80
2022/01/04 08:44:41;;;;;;;;;;;7.40;99.90;;;;;;5032207;28;20064;-76
2022/01/04 08:47:11;;;;;;;9.35;1.92;;;7.40;99.90;;;;;;5045429;28;19925;-79
2022/01/04 08:49:38;;;;;;;7.43;2.70;;;7.40;99.90;;;;;;5045707;28;20110;-82
2022/01/04 08:52:05;;;;;;;6.03;2.35;;;7.40;99.90;;;;;;5032617;28;20103;-81
2022/01/04 08:54:32;;;;;;;5.47;1.58;;;7.40;99.90;;;;;;5048203;28;20047;-77
2022/01/04 08:56:58;;;;;;;2.22;1.38;;;7.30;99.90;;;;;;5028761;28;20617;-79
2022/01/04 08:59:23;;;;;;;1.95;0.93;;;7.20;99.90;;;;;;5013187;28;20043;-80
2022/01/04 09:01:49;;;;;;;1.02;0.77;;;7.00;99.90;;;;;;5041998;28;20037;-78
2022/01/04 09:04:15;;;;;;;2.72;1.15;;;6.70;99.90;;;;;;5046231;28;20629;-79
2022/01/04 09:06:41;;;;;;;3.85;0.90;;;6.60;99.90;;;;;;5023672;28;20407;-78
2022/01/04 09:09:12;;;;;;;0.63;0.63;;;6.50;99.90;;;;;;5043397;28;20041;-78
2022/01/04 09:11:38;;;;;;;0.73;0.73;;;6.30;99.90;;;;;;5026617;28;20364;-78
2022/01/04 09:19:25;;;;;;;1.88;0.70;;;6.20;99.90;;;;;;5043307;28;20029;-78
2022/01/04 09:21:51;;;;;;;3.20;1.23;;;6.20;99.90;;;;;;5042735;28;20041;-80
2022/01/04 09:24:17;;;;;;;2.30;0.90;;;6.20;99.90;;;;;;5047458;28;20047;-75
2022/01/04 09:26:44;;;;;;;1.25;0.95;;;6.20;99.90;;;;;;5043263;28;20045;-77
2022/01/04 09:29:10;;;;;;;1.23;1.17;;;6.20;99.90;;;;;;5053927;28;20041;-76
2022/01/04 09:31:36;;;;;;;3.17;1.38;;;6.10;99.90;;;;;;5045461;28;20045;-80
2022/01/04 09:34:03;;;;;;;0.60;0.60;;;6.20;99.90;;;;;;5027194;28;20398;-76
2022/01/04 09:36:33;;;;;;;0.60;0.60;;;6.10;99.90;;;;;;5011056;28;20841;-75
2022/01/04 09:39:00;;;;;;;0.82;0.65;;;6.10;99.90;;;;;;5023903;28;20056;-76
2022/01/04 09:41:26;;;;;;;0.60;0.60;;;6.20;99.90;;;;;;5043540;28;20581;-76
2022/01/04 09:43:52;;;;;;;0.60;0.60;;;6.10;99.90;;;;;;5043620;28;20076;-78
2022/01/04 09:46:17;;;;;;;0.90;0.90;;;6.10;99.90;;;;;;5070345;28;20079;-78
2022/01/04 09:48:43;;;;;;;0.55;0.55;;;6.00;99.90;;;;;;5061233;28;20094;-80
2022/01/04 09:51:12;;;;;;;0.98;0.88;;;6.00;99.90;;;;;;5039588;28;20650;-79
2022/01/04 09:53:37;;;;;;;0.60;0.60;;;6.50;99.90;;;;;;5068581;28;20086;-79
2022/01/04 09:56:03;;;;;;;0.50;0.50;;;5.90;99.90;;;;;;5011098;28;20037;-79
2022/01/04 09:58:30;;;;;;;0.70;0.70;;;5.90;99.90;;;;;;5008438;28;20033;-79
2022/01/04 10:00:56;;;;;;;0.70;0.70;;;5.70;99.90;;;;;;5028797;28;20101;-78
2022/01/04 10:03:25;;;;;;;;;;;5.80;99.90;;;;;;5032443;28;20041;-77
2022/01/04 10:06:15;;;;;;;1.02;0.90;;;5.80;99.90;;;;;;5027348;28;19935;-79
2022/01/04 10:08:57;;;;;;;2.08;1.42;;;5.80;99.90;;;;;;5049453;28;20072;-78
2022/01/04 10:11:50;;;;;;;0.70;0.70;;;5.60;99.90;;;;;;5031454;28;20068;-80
2022/01/04 10:14:28;;;;;;;0.90;0.82;;;5.60;99.90;;;;;;5059231;28;20124;-79
2022/01/04 10:16:55;;;;;;;0.90;0.90;;;5.50;99.90;;;;;;5047702;28;20044;-79
2022/01/04 10:19:32;;;;;;;0.80;0.80;;;6.50;99.90;;;;;;5034639;28;20119;-79
2022/01/04 10:22:15;;;;;;;0.68;0.68;;;5.60;99.90;;;;;;5049135;28;20063;-77
2022/01/04 10:24:42;;;;;;;0.77;0.77;;;5.20;99.90;;;;;;5066768;28;20109;-78
2022/01/04 10:27:30;;;;;;;0.65;0.65;;;5.20;99.90;;;;;;5045440;28;20115;-78
2022/01/04 10:30:17;;;;;;;0.47;0.47;;;5.20;99.90;;;;;;5074015;28;20391;-78
2022/01/04 10:32:50;;;;;;;0.70;0.70;;;5.20;99.90;;;;;;5056371;28;20045;-79
2022/01/04 10:35:51;;;;;;;0.60;0.60;;;5.20;99.90;;;;;;5026816;28;20124;-77
2022/01/04 10:38:30;;;;;;;2.40;0.85;;;5.30;99.90;;;;;;5048096;28;20068;-78
2022/01/04 10:41:06;;;;;;;0.70;0.70;;;5.30;99.90;;;;;;5025825;28;20029;-81
2022/01/04 10:43:43;;;;;;;5.82;1.10;;;5.40;99.90;;;;;;5029168;28;20036;-80
2022/01/04 10:46:11;;;;;;;7.70;1.17;;;5.40;99.90;;;;;;5046394;28;20045;-79
2022/01/04 10:48:43;;;;;;;1.40;1.30;;;5.40;99.90;;;;;;5028635;28;20045;-77
2022/01/04 10:51:13;;;;;;;0.60;0.60;;;5.40;99.90;;;;;;5036379;28;20045;-78
2022/01/04 10:53:40;;;;;;;2.60;1.02;;;5.40;99.90;;;;;;5042817;28;20049;-78
2022/01/04 10:56:22;;;;;;;0.70;0.70;;;5.50;99.90;;;;;;5047152;28;20087;-79
2022/01/04 10:58:50;;;;;;;1.38;1.23;;;5.50;99.90;;;;;;5028101;28;20048;-78
2022/01/04 11:01:18;;;;;;;0.70;0.70;;;5.40;99.90;;;;;;5031744;28;20123;-78
2022/01/04 11:03:45;;;;;;;0.60;0.60;;;5.40;99.90;;;;;;5029228;28;20095;-79
2022/01/04 11:06:15;;;;;;;0.70;0.70;;;5.40;99.90;;;;;;5047735;28;20041;-78
2022/01/04 11:08:42;;;;;;;0.57;0.57;;;5.30;99.90;;;;;;5049911;28;20703;-78
2022/01/04 11:11:08;;;;;;;0.60;0.60;;;5.30;99.90;;;;;;5045520;28;20048;-78
2022/01/04 11:13:51;;;;;;;0.63;0.63;;;5.80;99.90;;;;;;5028585;28;20046;-79
2022/01/04 11:16:23;;;;;;;0.50;0.50;;;5.20;99.90;;;;;;5030855;28;20044;-80
2022/01/04 11:18:57;;;;;;;1.50;1.08;;;5.10;99.90;;;;;;5012905;28;20037;-81
2022/01/04 11:21:35;;;;;;;0.85;0.77;;;3.90;99.90;;;;;;5029801;28;20049;-78
2022/01/04 11:24:04;;;;;;;1.00;1.00;;;4.90;99.90;;;;;;5028743;28;20060;-79
2022/01/04 11:26:30;;;;;;;0.63;0.63;;;4.90;99.90;;;;;;5027752;28;20076;-77
2022/01/04 11:28:57;;;;;;;3.13;1.15;;;5.00;99.90;;;;;;5045102;28;20036;-78
2022/01/04 11:31:54;;;;;;;4.03;0.80;;;5.00;99.90;;;;;;5045208;28;20065;-79
2022/01/04 11:34:54;;;;;;;0.60;0.60;;;5.10;99.90;;;;;;5029897;28;20097;-77
2022/01/04 11:37:23;;;;;;;0.55;0.55;;;5.20;99.90;;;;;;5047006;28;20056;-79
2022/01/04 11:39:51;;;;;;;0.50;0.50;;;5.30;99.90;;;;;;5045014;28;20872;-82
2022/01/04 11:42:35;;;;;;;0.80;0.80;;;5.20;99.90;;;;;;5033118;28;20504;-82
2022/01/04 11:45:02;;;;;;;0.60;0.60;;;5.20;99.90;;;;;;5031915;28;20071;-82
2022/01/04 11:47:30;;;;;;;1.23;0.85;;;5.30;99.90;;;;;;5029794;28;20041;-81
2022/01/04 11:50:13;;;;;;;0.60;0.60;;;5.40;99.90;;;;;;5024329;28;20128;-76
2022/01/04 11:52:42;;;;;;;0.60;0.60;;;5.30;99.90;;;;;;5019275;28;20402;-78
2022/01/04 11:55:21;;;;;;;2.15;1.20;;;5.30;99.90;;;;;;5044537;28;20178;-80
2022/01/04 11:57:51;;;;;;;1.48;1.02;;;5.40;99.90;;;;;;5028871;28;20045;-77
2022/01/04 12:00:32;;;;;;;1.17;1.02;;;5.40;99.90;;;;;;5025150;28;20070;-75
2022/01/04 12:03:15;;;;;;;0.45;0.45;;;5.40;99.90;;;;;;5043018;28;20033;-76
2022/01/04 12:05:56;;;;;;;3.50;0.70;;;5.50;99.90;;;;;;5044005;28;20037;-78
2022/01/04 12:08:24;;;;;;;0.57;0.57;;;5.60;99.90;;;;;;5045230;28;20045;-80
2022/01/04 12:10:51;;;;;;;0.57;0.57;;;5.60;99.90;;;;;;5009798;28;20043;-80
2022/01/04 12:13:57;;;;;;;0.98;0.98;;;5.70;99.90;;;;;;5015517;28;20360;-83
2022/01/04 12:16:56;;;;;;;0.70;0.70;;;5.70;99.90;;;;;;5030937;28;20045;-83
2022/01/04 12:19:49;;;;;;;0.63;0.63;;;5.70;99.90;;;;;;5043994;28;20667;-82
2022/01/04 12:22:29;;;;;;;3.85;0.63;;;5.70;99.90;;;;;;5047961;28;20060;-83
2022/01/04 12:25:02;;;;;;;0.85;0.70;;;5.70;99.90;;;;;;5048502;28;20044;-83
2022/01/04 12:27:28;;;;;;;0.60;0.60;;;6.00;99.90;;;;;;5026915;28;20037;-83
2022/01/04 12:30:25;;;;;;;3.55;1.10;;;5.70;99.90;;;;;;5050099;28;20257;-81
2022/01/04 12:32:51;;;;;;;0.75;0.75;;;5.60;99.90;;;;;;5024562;28;20095;-77
2022/01/04 12:35:17;;;;;;;;;;;5.60;99.90;;;;;;5013413;28;20052;-79
2022/01/04 12:37:43;;;;;;;0.70;0.70;;;5.60;99.90;;;;;;5027261;28;19955;-77
2022/01/04 12:40:09;;;;;;;0.68;0.68;;;5.60;99.90;;;;;;5013312;28;20037;-77
2022/01/04 12:42:39;;;;;;;;;;;5.60;99.90;;;;;;5046059;28;20828;-77
2022/01/04 12:45:05;;;;;;;0.82;0.80;;;6.00;99.90;;;;;;5023889;28;19990;-77
2022/01/04 12:47:32;;;;;;;1.48;1.00;;;5.50;99.90;;;;;;5046756;28;20755;-77
2022/01/04 12:49:59;;;;;;;1.30;1.23;;;5.40;99.90;;;;;;5027954;28;20474;-78
2022/01/04 12:52:25;;;;;;;0.70;0.70;;;5.40;99.90;;;;;;5053310;28;20056;-77
2022/01/04 12:54:51;;;;;;;0.70;0.70;;;5.30;99.90;;;;;;5038428;28;20053;-78
2022/01/04 12:57:26;;;;;;;0.93;0.93;;;5.40;99.90;;;;;;5045500;28;20084;-77
2022/01/04 12:59:56;;;;;;;0.60;0.60;;;5.40;99.90;;;;;;5044020;28;20048;-78
2022/01/04 13:02:28;;;;;;;1.83;0.70;;;5.40;99.90;;;;;;5044291;28;20037;-78
2022/01/04 13:05:05;;;;;;;0.77;0.77;;;5.40;99.90;;;;;;5043731;28;20605;-79
2022/01/04 13:07:37;;;;;;;0.68;0.68;;;5.40;99.90;;;;;;5045450;28;20049;-78
2022/01/04 13:10:11;;;;;;;0.60;0.60;;;5.40;99.90;;;;;;5044840;28;20087;-77
2022/01/04 13:12:40;;;;;;;0.65;0.65;;;5.40;99.90;;;;;;5045650;28;20041;-76
2022/01/04 13:15:08;;;;;;;1.92;1.05;;;5.50;99.90;;;;;;5028401;28;20102;-79
2022/01/04 13:17:34;;;;;;;0.60;0.60;;;5.40;99.90;;;;;;5027833;28;20539;-78
2022/01/04 13:20:00;;;;;;;0.80;0.80;;;5.40;99.90;;;;;;5026959;28;20045;-78
2022/01/04 13:22:28;;;;;;;1.00;0.90;;;5.40;99.90;;;;;;5026233;28;20126;-79